sensor_id;sensor_type;location;lat;lon;timestamp;temperature;humidity
12268;DHT22;6196;48.398;11.736;2024-01-10T00:01:59;-6.30;99.90
12268;DHT22;6196;48.398;11.736;2024-01-10T00:04:26;-6.30;99.90
12268;DHT22;6196;48.398;11.736;2024-01-10T00:06:53;-6.30;99.90
12268;DHT22;6196;48.398;11.736;2024-01-10T00:09:20;-6.30;99.90
12268;DHT22;6196;48.398;11.736;2024-01-10T00:11:47;-6.30;99.90
12268;DHT22;6196;48.398;11.736;2024-01-10T00:14:14;-6.30;99.90
12268;DHT22;6196;48.398;11.736;2024-01-10T00:16:41;-6.30;99.90
12268;DHT22;6196;48.398;11.736;2024-01-10T00:19:08;-6.30;99.90
12268;DHT22;6196;48.398;11.736;2024-01-10T00:21:35;-6.30;99.90
12268;DHT22;6196;48.398;11.736;2024-01-10T00:24:02;-6.20;99.90
12268;DHT22;6196;48.398;11.736;2024-01-10T00:26:29;-6.30;99.90
12268;DHT22;6196;48.398;11.736;2024-01-10T00:28:56;-6.30;99.90
12268;DHT22;6196;48.398;11.736;2024-01-10T00:31:30;-6.30;99.90
12268;DHT22;6196;48.398;11.736;2024-01-10T00:33:57;-6.20;99.90
12268;DHT22;6196;48.398;11.736;2024-01-10T00:36:25;-6.20;99.90
12268;DHT22;6196;48.398;11.736;2024-01-10T00:38:52;-6.20;99.90
12268;DHT22;6196;48.398;11.736;2024-01-10T00:41:19;-6.20;99.90
12268;DHT22;6196;48.398;11.736;2024-01-10T00:43:46;-6.20;99.90
12268;DHT22;6196;48.398;11.736;2024-01-10T00:46:13;-6.20;99.90
12268;DHT22;6196;48.398;11.736;2024-01-10T00:48:40;-6.20;99.90
12268;DHT22;6196;48.398;11.736;2024-01-10T00:51:07;-6.20;99.90
12268;DHT22;6196;48.398;11.736;2024-01-10T00:53:35;-6.20;99.90
12268;DHT22;6196;48.398;11.736;2024-01-10T00:56:05;-6.20;99.90
12268;DHT22;6196;48.398;11.736;2024-01-10T00:58:33;-6.10;99.90
12268;DHT22;6196;48.398;11.736;2024-01-10T01:01:00;-6.20;99.90
12268;DHT22;6196;48.398;11.736;2024-01-10T01:03:27;-6.20;99.90
12268;DHT22;6196;48.398;11.736;2024-01-10T01:05:54;-6.20;99.90
12268;DHT22;6196;48.398;11.736;2024-01-10T01:08:22;-6.20;99.90
12268;DHT22;6196;48.398;11.736;2024-01-10T01:10:49;-6.20;99.90
12268;DHT22;6196;48.398;11.736;2024-01-10T01:13:16;-6.20;99.90
12268;DHT22;6196;48.398;11.736;2024-01-10T01:15:43;-6.20;99.90
12268;DHT22;6196;48.398;11.736;2024-01-10T01:18:11;-6.20;99.90
12268;DHT22;6196;48.398;11.736;2024-01-10T01:20:39;-6.20;99.90
12268;DHT22;6196;48.398;11.736;2024-01-10T01:23:06;-6.30;99.90
12268;DHT22;6196;48.398;11.736;2024-01-10T01:25:33;-6.30;99.90
12268;DHT22;6196;48.398;11.736;2024-01-10T01:28:00;-6.30;99.90
12268;DHT22;6196;48.398;11.736;2024-01-10T01:30:27;-6.30;99.90
12268;DHT22;6196;48.398;11.736;2024-01-10T01:32:54;-6.30;99.90
12268;DHT22;6196;48.398;11.736;2024-01-10T01:35:21;-6.30;99.90
12268;DHT22;6196;48.398;11.736;2024-01-10T01:37:49;-6.30;99.90
12268;DHT22;6196;48.398;11.736;2024-01-10T01:40:18;-6.30;99.90
12268;DHT22;6196;48.398;11.736;2024-01-10T01:42:45;-6.30;99.90
12268;DHT22;6196;48.398;11.736;2024-01-10T01:45:13;-6.30;99.90
12268;DHT22;6196;48.398;11.736;2024-01-10T01:47:40;-6.30;99.90
12268;DHT22;6196;48.398;11.736;2024-01-10T01:50:08;-6.30;99.90
12268;DHT22;6196;48.398;11.736;2024-01-10T01:52:36;-6.30;99.90
12268;DHT22;6196;48.398;11.736;2024-01-10T01:55:03;-6.30;99.90
12268;DHT22;6196;48.398;11.736;2024-01-10T01:57:32;-6.40;99.90
12268;DHT22;6196;48.398;11.736;2024-01-10T01:59:59;-6.40;99.90
12268;DHT22;6196;48.398;11.736;2024-01-10T02:02:27;-6.40;99.90
12268;DHT22;6196;48.398;11.736;2024-01-10T02:04:55;-6.50;99.90
12268;DHT22;6196;48.398;11.736;2024-01-10T02:07:22;-6.50;99.90
12268;DHT22;6196;48.398;11.736;2024-01-10T02:09:49;-6.60;99.90
12268;DHT22;6196;48.398;11.736;2024-01-10T02:12:16;-6.60;99.90
12268;DHT22;6196;48.398;11.736;2024-01-10T02:14:44;-6.60;99.90
12268;DHT22;6196;48.398;11.736;2024-01-10T02:17:11;-6.60;99.90
12268;DHT22;6196;48.398;11.736;2024-01-10T02:19:38;-6.70;99.90
12268;DHT22;6196;48.398;11.736;2024-01-10T02:22:05;-6.70;99.90
12268;DHT22;6196;48.398;11.736;2024-01-10T02:24:32;-6.80;99.90
12268;DHT22;6196;48.398;11.736;2024-01-10T02:26:59;-6.70;99.90
12268;DHT22;6196;48.398;11.736;2024-01-10T02:29:26;-6.70;99.90
12268;DHT22;6196;48.398;11.736;2024-01-10T02:31:53;-6.70;99.90
12268;DHT22;6196;48.398;11.736;2024-01-10T02:34:20;-6.70;99.90
12268;DHT22;6196;48.398;11.736;2024-01-10T02:36:47;-6.70;99.90
12268;DHT22;6196;48.398;11.736;2024-01-10T02:39:14;-6.70;99.90
12268;DHT22;6196;48.398;11.736;2024-01-10T02:41:41;-6.70;99.90
12268;DHT22;6196;48.398;11.736;2024-01-10T02:44:07;-6.70;99.90
12268;DHT22;6196;48.398;11.736;2024-01-10T02:46:34;-6.70;99.90
12268;DHT22;6196;48.398;11.736;2024-01-10T02:49:01;-6.70;99.90
12268;DHT22;6196;48.398;11.736;2024-01-10T02:51:28;-6.70;99.90
12268;DHT22;6196;48.398;11.736;2024-01-10T02:53:57;-6.70;99.90
12268;DHT22;6196;48.398;11.736;2024-01-10T02:56:24;-6.70;99.90
12268;DHT22;6196;48.398;11.736;2024-01-10T02:58:51;-6.70;99.90
12268;DHT22;6196;48.398;11.736;2024-01-10T03:01:18;-6.70;99.90
12268;DHT22;6196;48.398;11.736;2024-01-10T03:03:45;-6.80;99.90
12268;DHT22;6196;48.398;11.736;2024-01-10T03:06:12;-6.70;99.90
12268;DHT22;6196;48.398;11.736;2024-01-10T03:08:39;-6.80;99.90
12268;DHT22;6196;48.398;11.736;2024-01-10T03:11:06;-6.80;99.90
12268;DHT22;6196;48.398;11.736;2024-01-10T03:13:33;-6.90;99.90
12268;DHT22;6196;48.398;11.736;2024-01-10T03:16:00;-6.90;99.90
12268;DHT22;6196;48.398;11.736;2024-01-10T03:18:27;-6.90;99.90
12268;DHT22;6196;48.398;11.736;2024-01-10T03:20:54;-6.90;99.90
12268;DHT22;6196;48.398;11.736;2024-01-10T03:23:22;-6.90;99.90
12268;DHT22;6196;48.398;11.736;2024-01-10T03:25:49;-6.90;99.90
12268;DHT22;6196;48.398;11.736;2024-01-10T03:28:16;-6.90;99.90
12268;DHT22;6196;48.398;11.736;2024-01-10T03:30:46;-6.90;99.90
12268;DHT22;6196;48.398;11.736;2024-01-10T03:33:13;-6.90;99.90
12268;DHT22;6196;48.398;11.736;2024-01-10T03:35:42;-6.90;99.90
12268;DHT22;6196;48.398;11.736;2024-01-10T03:38:09;-6.90;99.90
12268;DHT22;6196;48.398;11.736;2024-01-10T03:40:36;-6.90;99.90
12268;DHT22;6196;48.398;11.736;2024-01-10T03:43:03;-6.90;99.90
12268;DHT22;6196;48.398;11.736;2024-01-10T03:45:30;-6.90;99.90
12268;DHT22;6196;48.398;11.736;2024-01-10T03:47:57;-6.90;99.90
12268;DHT22;6196;48.398;11.736;2024-01-10T03:50:24;-6.90;99.90
12268;DHT22;6196;48.398;11.736;2024-01-10T03:52:51;-6.90;99.90
12268;DHT22;6196;48.398;11.736;2024-01-10T03:55:18;-6.90;99.90
12268;DHT22;6196;48.398;11.736;2024-01-10T03:57:45;-7.00;99.90
12268;DHT22;6196;48.398;11.736;2024-01-10T04:00:12;-6.90;99.90
12268;DHT22;6196;48.398;11.736;2024-01-10T04:02:39;-7.00;99.90
12268;DHT22;6196;48.398;11.736;2024-01-10T04:05:09;-7.00;99.90
12268;DHT22;6196;48.398;11.736;2024-01-10T04:07:42;-7.10;99.90
12268;DHT22;6196;48.398;11.736;2024-01-10T04:10:11;-7.10;99.90
12268;DHT22;6196;48.398;11.736;2024-01-10T04:12:41;-7.10;99.90
12268;DHT22;6196;48.398;11.736;2024-01-10T04:15:09;-7.10;99.90
12268;DHT22;6196;48.398;11.736;2024-01-10T04:17:36;-7.20;99.90
12268;DHT22;6196;48.398;11.736;2024-01-10T04:20:04;-7.30;99.90
12268;DHT22;6196;48.398;11.736;2024-01-10T04:22:32;-7.30;99.90
12268;DHT22;6196;48.398;11.736;2024-01-10T04:25:01;-7.30;99.90
12268;DHT22;6196;48.398;11.736;2024-01-10T04:27:28;-7.30;99.90
12268;DHT22;6196;48.398;11.736;2024-01-10T04:29:55;-7.30;99.90
12268;DHT22;6196;48.398;11.736;2024-01-10T04:32:22;-7.20;99.90
12268;DHT22;6196;48.398;11.736;2024-01-10T04:34:49;-7.20;99.90
12268;DHT22;6196;48.398;11.736;2024-01-10T04:37:16;-7.10;99.90
12268;DHT22;6196;48.398;11.736;2024-01-10T04:39:44;-7.10;99.90
12268;DHT22;6196;48.398;11.736;2024-01-10T04:42:11;-7.00;99.90
12268;DHT22;6196;48.398;11.736;2024-01-10T04:44:38;-6.90;99.90
12268;DHT22;6196;48.398;11.736;2024-01-10T04:47:05;-6.80;99.90
12268;DHT22;6196;48.398;11.736;2024-01-10T04:49:34;-6.80;99.90
12268;DHT22;6196;48.398;11.736;2024-01-10T04:52:01;-6.70;99.90
12268;DHT22;6196;48.398;11.736;2024-01-10T04:54:28;-6.60;99.90
12268;DHT22;6196;48.398;11.736;2024-01-10T04:56:55;-6.60;99.90
12268;DHT22;6196;48.398;11.736;2024-01-10T04:59:22;-6.50;99.90
12268;DHT22;6196;48.398;11.736;2024-01-10T05:01:49;-6.40;99.90
12268;DHT22;6196;48.398;11.736;2024-01-10T05:04:16;-6.30;99.90
12268;DHT22;6196;48.398;11.736;2024-01-10T05:06:43;-6.20;99.90
12268;DHT22;6196;48.398;11.736;2024-01-10T05:09:10;-6.10;99.90
12268;DHT22;6196;48.398;11.736;2024-01-10T05:11:37;-6.10;99.90
12268;DHT22;6196;48.398;11.736;2024-01-10T05:14:07;-5.90;99.90
12268;DHT22;6196;48.398;11.736;2024-01-10T05:16:34;-5.90;99.90
12268;DHT22;6196;48.398;11.736;2024-01-10T05:19:01;-5.70;99.90
12268;DHT22;6196;48.398;11.736;2024-01-10T05:21:32;-5.70;99.90
12268;DHT22;6196;48.398;11.736;2024-01-10T05:23:59;-5.70;99.90
12268;DHT22;6196;48.398;11.736;2024-01-10T05:26:26;-5.70;99.90
12268;DHT22;6196;48.398;11.736;2024-01-10T05:28:53;-5.70;99.90
12268;DHT22;6196;48.398;11.736;2024-01-10T05:31:20;-5.70;99.90
12268;DHT22;6196;48.398;11.736;2024-01-10T05:33:47;-5.70;99.90
12268;DHT22;6196;48.398;11.736;2024-01-10T05:36:14;-5.80;99.90
12268;DHT22;6196;48.398;11.736;2024-01-10T05:38:41;-5.80;99.90
12268;DHT22;6196;48.398;11.736;2024-01-10T05:41:08;-5.70;99.90
12268;DHT22;6196;48.398;11.736;2024-01-10T05:43:35;-5.70;99.90
12268;DHT22;6196;48.398;11.736;2024-01-10T05:46:03;-5.60;99.90
12268;DHT22;6196;48.398;11.736;2024-01-10T05:48:31;-5.50;99.90
12268;DHT22;6196;48.398;11.736;2024-01-10T05:51:01;-5.50;99.90
12268;DHT22;6196;48.398;11.736;2024-01-10T05:53:28;-5.40;99.90
12268;DHT22;6196;48.398;11.736;2024-01-10T05:55:55;-5.40;99.90
12268;DHT22;6196;48.398;11.736;2024-01-10T05:58:22;-5.30;99.90
12268;DHT22;6196;48.398;11.736;2024-01-10T06:00:49;-5.30;99.90
12268;DHT22;6196;48.398;11.736;2024-01-10T06:03:16;-5.40;99.90
12268;DHT22;6196;48.398;11.736;2024-01-10T06:05:43;-5.30;99.90
12268;DHT22;6196;48.398;11.736;2024-01-10T06:08:10;-5.20;99.90
12268;DHT22;6196;48.398;11.736;2024-01-10T06:10:37;-5.20;99.90
12268;DHT22;6196;48.398;11.736;2024-01-10T06:13:04;-5.20;99.90
12268;DHT22;6196;48.398;11.736;2024-01-10T06:15:31;-5.20;99.90
12268;DHT22;6196;48.398;11.736;2024-01-10T06:17:58;-5.20;99.90
12268;DHT22;6196;48.398;11.736;2024-01-10T06:20:25;-5.20;99.90
12268;DHT22;6196;48.398;11.736;2024-01-10T06:22:52;-5.20;99.90
12268;DHT22;6196;48.398;11.736;2024-01-10T06:25:19;-5.20;99.90
12268;DHT22;6196;48.398;11.736;2024-01-10T06:27:46;-5.20;99.90
12268;DHT22;6196;48.398;11.736;2024-01-10T06:30:13;-5.10;99.90
12268;DHT22;6196;48.398;11.736;2024-01-10T06:32:41;-5.10;99.90
12268;DHT22;6196;48.398;11.736;2024-01-10T06:35:08;-5.20;99.90
12268;DHT22;6196;48.398;11.736;2024-01-10T06:37:37;-5.20;99.90
12268;DHT22;6196;48.398;11.736;2024-01-10T06:40:05;-5.10;99.90
12268;DHT22;6196;48.398;11.736;2024-01-10T06:42:33;-5.10;99.90
12268;DHT22;6196;48.398;11.736;2024-01-10T06:45:00;-5.10;99.90
12268;DHT22;6196;48.398;11.736;2024-01-10T06:47:27;-5.00;99.90
12268;DHT22;6196;48.398;11.736;2024-01-10T06:49:54;-5.00;99.90
12268;DHT22;6196;48.398;11.736;2024-01-10T06:52:21;-5.00;99.90
12268;DHT22;6196;48.398;11.736;2024-01-10T06:54:48;-5.00;99.90
12268;DHT22;6196;48.398;11.736;2024-01-10T06:57:15;-5.00;99.90
12268;DHT22;6196;48.398;11.736;2024-01-10T06:59:42;-4.90;99.90
12268;DHT22;6196;48.398;11.736;2024-01-10T07:02:10;-4.90;99.90
12268;DHT22;6196;48.398;11.736;2024-01-10T07:04:38;-4.90;99.90
12268;DHT22;6196;48.398;11.736;2024-01-10T07:07:05;-4.80;99.90
12268;DHT22;6196;48.398;11.736;2024-01-10T07:09:32;-4.80;99.90
12268;DHT22;6196;48.398;11.736;2024-01-10T07:11:59;-4.80;99.90
12268;DHT22;6196;48.398;11.736;2024-01-10T07:14:26;-4.90;99.90
12268;DHT22;6196;48.398;11.736;2024-01-10T07:16:53;-4.90;99.90
12268;DHT22;6196;48.398;11.736;2024-01-10T07:19:23;-4.80;99.90
12268;DHT22;6196;48.398;11.736;2024-01-10T07:21:51;-4.80;99.90
12268;DHT22;6196;48.398;11.736;2024-01-10T07:24:18;-4.80;99.90
12268;DHT22;6196;48.398;11.736;2024-01-10T07:26:44;-4.70;99.90
12268;DHT22;6196;48.398;11.736;2024-01-10T07:29:11;-4.70;99.90
12268;DHT22;6196;48.398;11.736;2024-01-10T07:31:38;-4.70;99.90
12268;DHT22;6196;48.398;11.736;2024-01-10T07:34:07;-4.80;99.90
12268;DHT22;6196;48.398;11.736;2024-01-10T07:36:41;-4.80;99.90
12268;DHT22;6196;48.398;11.736;2024-01-10T07:39:09;-4.80;99.90
12268;DHT22;6196;48.398;11.736;2024-01-10T07:41:36;-4.70;99.90
12268;DHT22;6196;48.398;11.736;2024-01-10T07:44:03;-4.80;99.90
12268;DHT22;6196;48.398;11.736;2024-01-10T07:46:30;-4.80;99.90
12268;DHT22;6196;48.398;11.736;2024-01-10T07:48:57;-4.90;99.90
12268;DHT22;6196;48.398;11.736;2024-01-10T07:51:27;-4.90;99.90
12268;DHT22;6196;48.398;11.736;2024-01-10T07:53:54;-4.90;99.90
12268;DHT22;6196;48.398;11.736;2024-01-10T07:56:20;-4.80;99.90
12268;DHT22;6196;48.398;11.736;2024-01-10T07:58:48;-4.70;99.90
12268;DHT22;6196;48.398;11.736;2024-01-10T08:01:15;-4.70;99.90
12268;DHT22;6196;48.398;11.736;2024-01-10T08:03:42;-4.70;99.90
12268;DHT22;6196;48.398;11.736;2024-01-10T08:06:09;-4.70;99.90
12268;DHT22;6196;48.398;11.736;2024-01-10T08:08:52;-4.70;99.90
12268;DHT22;6196;48.398;11.736;2024-01-10T08:11:19;-4.70;99.90
12268;DHT22;6196;48.398;11.736;2024-01-10T08:13:46;-4.70;99.90
12268;DHT22;6196;48.398;11.736;2024-01-10T08:16:13;-4.70;99.90
12268;DHT22;6196;48.398;11.736;2024-01-10T08:18:40;-4.70;99.90
12268;DHT22;6196;48.398;11.736;2024-01-10T08:21:09;-4.70;99.90
12268;DHT22;6196;48.398;11.736;2024-01-10T08:23:35;-4.90;99.90
12268;DHT22;6196;48.398;11.736;2024-01-10T08:26:02;-4.80;99.90
12268;DHT22;6196;48.398;11.736;2024-01-10T08:28:34;-4.90;99.90
12268;DHT22;6196;48.398;11.736;2024-01-10T08:31:01;-4.80;99.90
12268;DHT22;6196;48.398;11.736;2024-01-10T08:33:31;-4.70;99.90
12268;DHT22;6196;48.398;11.736;2024-01-10T08:35:58;-4.70;99.90
12268;DHT22;6196;48.398;11.736;2024-01-10T08:38:26;-4.70;99.90
12268;DHT22;6196;48.398;11.736;2024-01-10T08:40:53;-4.60;99.90
12268;DHT22;6196;48.398;11.736;2024-01-10T08:43:20;-4.60;99.90
12268;DHT22;6196;48.398;11.736;2024-01-10T08:45:47;-4.70;99.90
12268;DHT22;6196;48.398;11.736;2024-01-10T08:48:14;-4.60;99.90
12268;DHT22;6196;48.398;11.736;2024-01-10T08:50:42;-4.50;99.90
12268;DHT22;6196;48.398;11.736;2024-01-10T08:53:10;-4.50;99.90
12268;DHT22;6196;48.398;11.736;2024-01-10T08:55:37;-4.40;99.90
12268;DHT22;6196;48.398;11.736;2024-01-10T08:58:04;-4.40;99.90
12268;DHT22;6196;48.398;11.736;2024-01-10T09:00:31;-4.40;99.90
12268;DHT22;6196;48.398;11.736;2024-01-10T09:02:58;-4.40;99.90
12268;DHT22;6196;48.398;11.736;2024-01-10T09:05:25;-4.40;99.90
12268;DHT22;6196;48.398;11.736;2024-01-10T09:07:53;-4.50;99.90
12268;DHT22;6196;48.398;11.736;2024-01-10T09:10:23;-4.40;99.90
12268;DHT22;6196;48.398;11.736;2024-01-10T09:12:50;-4.40;99.90
12268;DHT22;6196;48.398;11.736;2024-01-10T09:15:17;-4.40;99.90
12268;DHT22;6196;48.398;11.736;2024-01-10T09:17:44;-4.40;99.90
12268;DHT22;6196;48.398;11.736;2024-01-10T09:20:12;-4.30;99.90
12268;DHT22;6196;48.398;11.736;2024-01-10T09:22:39;-4.30;99.90
12268;DHT22;6196;48.398;11.736;2024-01-10T09:25:07;-4.30;99.90
12268;DHT22;6196;48.398;11.736;2024-01-10T09:27:35;-4.20;99.90
12268;DHT22;6196;48.398;11.736;2024-01-10T09:30:03;-4.10;99.90
12268;DHT22;6196;48.398;11.736;2024-01-10T09:32:31;-3.90;99.90
12268;DHT22;6196;48.398;11.736;2024-01-10T09:34:58;-3.90;99.90
12268;DHT22;6196;48.398;11.736;2024-01-10T09:37:26;-3.80;99.90
12268;DHT22;6196;48.398;11.736;2024-01-10T09:39:53;-3.50;99.90
12268;DHT22;6196;48.398;11.736;2024-01-10T09:42:20;-3.20;99.90
12268;DHT22;6196;48.398;11.736;2024-01-10T09:44:52;-3.30;99.90
12268;DHT22;6196;48.398;11.736;2024-01-10T09:47:20;-3.30;99.90
12268;DHT22;6196;48.398;11.736;2024-01-10T09:49:47;-2.50;99.90
12268;DHT22;6196;48.398;11.736;2024-01-10T09:52:27;-3.30;99.90
12268;DHT22;6196;48.398;11.736;2024-01-10T09:54:57;-3.30;99.90
12268;DHT22;6196;48.398;11.736;2024-01-10T09:57:24;-3.60;99.90
12268;DHT22;6196;48.398;11.736;2024-01-10T09:59:52;-3.60;99.90
12268;DHT22;6196;48.398;11.736;2024-01-10T10:02:21;-3.60;99.90
12268;DHT22;6196;48.398;11.736;2024-01-10T10:05:12;-3.60;99.90
12268;DHT22;6196;48.398;11.736;2024-01-10T10:07:48;-3.50;99.90
12268;DHT22;6196;48.398;11.736;2024-01-10T10:10:17;-3.40;99.90
12268;DHT22;6196;48.398;11.736;2024-01-10T10:12:49;-3.30;99.90
12268;DHT22;6196;48.398;11.736;2024-01-10T10:15:23;-3.20;99.90
12268;DHT22;6196;48.398;11.736;2024-01-10T10:17:53;-3.30;99.90
12268;DHT22;6196;48.398;11.736;2024-01-10T10:20:29;-3.30;99.90
12268;DHT22;6196;48.398;11.736;2024-01-10T10:23:08;-3.30;99.90
12268;DHT22;6196;48.398;11.736;2024-01-10T10:25:43;-3.30;99.90
12268;DHT22;6196;48.398;11.736;2024-01-10T10:28:11;-3.40;99.90
12268;DHT22;6196;48.398;11.736;2024-01-10T10:30:55;-3.20;99.90
12268;DHT22;6196;48.398;11.736;2024-01-10T10:33:22;-3.00;99.90
12268;DHT22;6196;48.398;11.736;2024-01-10T10:35:50;-2.90;99.90
12268;DHT22;6196;48.398;11.736;2024-01-10T10:38:22;-2.70;99.90
12268;DHT22;6196;48.398;11.736;2024-01-10T10:40:50;-1.80;99.90
12268;DHT22;6196;48.398;11.736;2024-01-10T10:43:19;-2.50;99.90
12268;DHT22;6196;48.398;11.736;2024-01-10T10:45:49;-2.50;99.90
12268;DHT22;6196;48.398;11.736;2024-01-10T10:48:18;-2.40;99.90
12268;DHT22;6196;48.398;11.736;2024-01-10T10:50:59;-2.50;99.90
12268;DHT22;6196;48.398;11.736;2024-01-10T10:53:34;-2.70;99.90
12268;DHT22;6196;48.398;11.736;2024-01-10T10:56:06;-2.70;99.90
12268;DHT22;6196;48.398;11.736;2024-01-10T10:58:36;-2.80;99.90
12268;DHT22;6196;48.398;11.736;2024-01-10T11:01:09;-2.90;99.90
12268;DHT22;6196;48.398;11.736;2024-01-10T11:03:39;-2.80;99.90
12268;DHT22;6196;48.398;11.736;2024-01-10T11:06:08;-2.70;99.90
12268;DHT22;6196;48.398;11.736;2024-01-10T11:08:45;-2.70;99.90
12268;DHT22;6196;48.398;11.736;2024-01-10T11:23:44;-2.60;99.90
12268;DHT22;6196;48.398;11.736;2024-01-10T11:26:15;-2.50;99.90
12268;DHT22;6196;48.398;11.736;2024-01-10T11:28:42;-2.40;99.90
12268;DHT22;6196;48.398;11.736;2024-01-10T11:31:10;-2.40;99.90
12268;DHT22;6196;48.398;11.736;2024-01-10T11:33:40;-2.30;99.90
12268;DHT22;6196;48.398;11.736;2024-01-10T11:36:30;-2.40;99.90
12268;DHT22;6196;48.398;11.736;2024-01-10T11:39:03;-2.30;99.90
12268;DHT22;6196;48.398;11.736;2024-01-10T11:41:33;-2.20;99.90
12268;DHT22;6196;48.398;11.736;2024-01-10T11:46:38;-1.80;99.90
12268;DHT22;6196;48.398;11.736;2024-01-10T11:49:09;-1.70;99.90
12268;DHT22;6196;48.398;11.736;2024-01-10T11:51:39;-1.50;99.90
12268;DHT22;6196;48.398;11.736;2024-01-10T11:54:12;-1.70;99.90
12268;DHT22;6196;48.398;11.736;2024-01-10T11:57:29;-1.70;99.90
12268;DHT22;6196;48.398;11.736;2024-01-10T11:59:59;-1.70;99.90
12268;DHT22;6196;48.398;11.736;2024-01-10T12:02:29;-1.50;99.90
12268;DHT22;6196;48.398;11.736;2024-01-10T12:04:56;-1.40;99.90
12268;DHT22;6196;48.398;11.736;2024-01-10T12:07:23;-1.60;99.90
12268;DHT22;6196;48.398;11.736;2024-01-10T12:09:52;-2.20;99.90
12268;DHT22;6196;48.398;11.736;2024-01-10T12:12:19;-2.30;99.90
12268;DHT22;6196;48.398;11.736;2024-01-10T12:14:47;-2.10;99.90
12268;DHT22;6196;48.398;11.736;2024-01-10T12:17:14;-2.00;99.90
12268;DHT22;6196;48.398;11.736;2024-01-10T12:19:41;-2.00;99.90
12268;DHT22;6196;48.398;11.736;2024-01-10T12:22:13;-2.00;99.90
12268;DHT22;6196;48.398;11.736;2024-01-10T12:24:44;-1.80;99.90
12268;DHT22;6196;48.398;11.736;2024-01-10T12:27:12;-1.60;99.90
12268;DHT22;6196;48.398;11.736;2024-01-10T12:29:39;-1.70;99.90
12268;DHT22;6196;48.398;11.736;2024-01-10T12:32:07;-1.70;99.90
12268;DHT22;6196;48.398;11.736;2024-01-10T12:34:38;-1.70;99.90
12268;DHT22;6196;48.398;11.736;2024-01-10T12:37:06;-1.80;99.90
12268;DHT22;6196;48.398;11.736;2024-01-10T12:39:33;-1.60;99.90
12268;DHT22;6196;48.398;11.736;2024-01-10T12:42:01;-1.60;99.90
12268;DHT22;6196;48.398;11.736;2024-01-10T12:44:30;-1.40;99.90
12268;DHT22;6196;48.398;11.736;2024-01-10T12:46:57;-1.60;99.90
12268;DHT22;6196;48.398;11.736;2024-01-10T12:49:24;-1.70;99.90
12268;DHT22;6196;48.398;11.736;2024-01-10T12:51:51;-1.60;99.90
12268;DHT22;6196;48.398;11.736;2024-01-10T12:54:20;-1.90;99.90
12268;DHT22;6196;48.398;11.736;2024-01-10T12:56:47;-2.20;99.90
12268;DHT22;6196;48.398;11.736;2024-01-10T12:59:16;-2.30;99.90
12268;DHT22;6196;48.398;11.736;2024-01-10T13:01:43;-2.10;99.90
12268;DHT22;6196;48.398;11.736;2024-01-10T13:04:11;-2.10;99.90
12268;DHT22;6196;48.398;11.736;2024-01-10T13:06:39;-2.00;99.90
12268;DHT22;6196;48.398;11.736;2024-01-10T13:09:07;-2.20;99.90
12268;DHT22;6196;48.398;11.736;2024-01-10T13:11:34;-2.30;99.90
12268;DHT22;6196;48.398;11.736;2024-01-10T13:14:01;-2.20;99.90
12268;DHT22;6196;48.398;11.736;2024-01-10T13:16:28;-2.10;99.90
12268;DHT22;6196;48.398;11.736;2024-01-10T13:18:56;-2.00;99.90
12268;DHT22;6196;48.398;11.736;2024-01-10T13:21:25;-1.50;99.90
12268;DHT22;6196;48.398;11.736;2024-01-10T13:23:52;-2.10;99.90
12268;DHT22;6196;48.398;11.736;2024-01-10T13:26:19;-2.00;99.90
12268;DHT22;6196;48.398;11.736;2024-01-10T13:28:46;-1.90;99.90
12268;DHT22;6196;48.398;11.736;2024-01-10T13:31:13;-1.80;99.90
12268;DHT22;6196;48.398;11.736;2024-01-10T13:33:42;-1.70;99.90
12268;DHT22;6196;48.398;11.736;2024-01-10T13:36:13;-1.70;99.90
12268;DHT22;6196;48.398;11.736;2024-01-10T13:38:41;-1.70;99.90
12268;DHT22;6196;48.398;11.736;2024-01-10T13:41:08;-1.80;99.90
12268;DHT22;6196;48.398;11.736;2024-01-10T13:43:36;-1.90;99.90
12268;DHT22;6196;48.398;11.736;2024-01-10T13:46:03;-1.80;99.90
12268;DHT22;6196;48.398;11.736;2024-01-10T13:48:35;-1.80;99.90
12268;DHT22;6196;48.398;11.736;2024-01-10T13:51:02;-1.80;99.90
12268;DHT22;6196;48.398;11.736;2024-01-10T13:53:29;-2.10;99.90
12268;DHT22;6196;48.398;11.736;2024-01-10T13:55:56;-2.30;99.90
12268;DHT22;6196;48.398;11.736;2024-01-10T13:58:23;-2.40;99.90
12268;DHT22;6196;48.398;11.736;2024-01-10T14:00:51;-2.40;99.90
12268;DHT22;6196;48.398;11.736;2024-01-10T14:03:18;-2.40;99.90
12268;DHT22;6196;48.398;11.736;2024-01-10T14:05:46;-2.40;99.90
12268;DHT22;6196;48.398;11.736;2024-01-10T14:08:13;-2.30;99.90
12268;DHT22;6196;48.398;11.736;2024-01-10T14:10:40;-2.60;99.90
12268;DHT22;6196;48.398;11.736;2024-01-10T14:13:08;-2.90;99.90
12268;DHT22;6196;48.398;11.736;2024-01-10T14:15:35;-2.70;99.90
12268;DHT22;6196;48.398;11.736;2024-01-10T14:18:02;-2.50;99.90
12268;DHT22;6196;48.398;11.736;2024-01-10T14:20:30;-2.50;99.90
12268;DHT22;6196;48.398;11.736;2024-01-10T14:22:57;-2.70;99.90
12268;DHT22;6196;48.398;11.736;2024-01-10T14:25:26;-2.80;99.90
12268;DHT22;6196;48.398;11.736;2024-01-10T14:27:53;-2.70;99.90
12268;DHT22;6196;48.398;11.736;2024-01-10T14:30:20;-2.70;99.90
12268;DHT22;6196;48.398;11.736;2024-01-10T14:32:47;-2.70;99.90
12268;DHT22;6196;48.398;11.736;2024-01-10T14:35:16;-2.80;99.90
12268;DHT22;6196;48.398;11.736;2024-01-10T14:37:43;-2.80;99.90
12268;DHT22;6196;48.398;11.736;2024-01-10T14:40:11;-2.80;99.90
12268;DHT22;6196;48.398;11.736;2024-01-10T14:42:38;-2.90;99.90
12268;DHT22;6196;48.398;11.736;2024-01-10T14:45:05;-2.80;99.90
12268;DHT22;6196;48.398;11.736;2024-01-10T14:47:32;-2.70;99.90
12268;DHT22;6196;48.398;11.736;2024-01-10T14:49:59;-2.80;99.90
12268;DHT22;6196;48.398;11.736;2024-01-10T14:52:27;-2.90;99.90
12268;DHT22;6196;48.398;11.736;2024-01-10T14:54:54;-2.90;99.90
12268;DHT22;6196;48.398;11.736;2024-01-10T14:57:21;-2.90;99.90
12268;DHT22;6196;48.398;11.736;2024-01-10T14:59:48;-2.90;99.90
12268;DHT22;6196;48.398;11.736;2024-01-10T15:02:16;-2.90;99.90
12268;DHT22;6196;48.398;11.736;2024-01-10T15:04:46;-3.00;99.90
12268;DHT22;6196;48.398;11.736;2024-01-10T15:07:13;-3.00;99.90
12268;DHT22;6196;48.398;11.736;2024-01-10T15:09:42;-3.00;99.90
12268;DHT22;6196;48.398;11.736;2024-01-10T15:12:10;-3.00;99.90
12268;DHT22;6196;48.398;11.736;2024-01-10T15:14:38;-3.00;99.90
12268;DHT22;6196;48.398;11.736;2024-01-10T15:17:07;-3.10;99.90
12268;DHT22;6196;48.398;11.736;2024-01-10T15:19:39;-3.20;99.90
12268;DHT22;6196;48.398;11.736;2024-01-10T15:22:07;-3.30;99.90
12268;DHT22;6196;48.398;11.736;2024-01-10T15:24:37;-3.30;99.90
12268;DHT22;6196;48.398;11.736;2024-01-10T15:27:05;-3.50;99.90
12268;DHT22;6196;48.398;11.736;2024-01-10T15:29:38;-3.50;99.90
12268;DHT22;6196;48.398;11.736;2024-01-10T15:32:06;-3.60;99.90
12268;DHT22;6196;48.398;11.736;2024-01-10T15:34:33;-3.60;99.90
12268;DHT22;6196;48.398;11.736;2024-01-10T15:37:00;-3.60;99.90
12268;DHT22;6196;48.398;11.736;2024-01-10T15:39:27;-3.60;99.90
12268;DHT22;6196;48.398;11.736;2024-01-10T15:41:54;-3.60;99.90
12268;DHT22;6196;48.398;11.736;2024-01-10T15:44:22;-3.70;99.90
12268;DHT22;6196;48.398;11.736;2024-01-10T15:46:49;-3.70;99.90
12268;DHT22;6196;48.398;11.736;2024-01-10T15:49:16;-3.70;99.90
12268;DHT22;6196;48.398;11.736;2024-01-10T15:51:44;-3.80;99.90